Nearby METAR Reports

 

KMSY - New Orleans,Louisiana, USA
Distance from station: E 11.7mi, 18.8km
Updated: Tue, 18-Feb-2020 5:53am CST
Mist, Overcast
Mist, Overcast
 Wind from ESE
Wind: ESE 6 mph , 9 km/h
Temperature: 70°F , 21°C
Dew Point: 68°F , 20°C
Humidity: 94%
Barometer: 30.03 inHg , 1016.9 hPa
Summary: Mist
Clouds: Overcast
Visibility: 1/2 mile , 0.8 km
Cloud details: Overcast 300 ft
2020/02/18 11:53 KMSY 181153Z 12005KT 1/2SM BR VV003 21/20 A3003 RMK AO2 SFC VIS 3/4 SLP173 T02110200 10217 20194 53011 RVRNO
KAPS - Reserve,Louisiana, USA
Distance from station: W 8.4mi, 13.5km
Updated: Tue, 18-Feb-2020 5:55am CST
Mist, Overcast
Mist, Overcast
 Wind from S
Wind: S 5 mph , 7 km/h
Temperature: 70°F , 21°C
Dew Point: 66°F , 19°C
Humidity: 88%
Barometer: 30.04 inHg , 1017.3 hPa
Summary: Mist
Clouds: Overcast
Visibility: 3/4 mile , 1.2 km
Cloud details: Overcast 300 ft
2020/02/18 11:55 KAPS 181155Z AUTO 17004KT 3/4SM BR OVC003 21/19 A3004 RMK AO2 T02070187 10207 20192
 
KHDC - Hammond,Louisiana, USA
Distance from station: N 31.5mi, 50.6km
Updated: Tue, 18-Feb-2020 5:55am CST
Fog, Overcast
Fog, Overcast
 Wind from calm
Wind: Calm
Temperature: 63°F , 17°C
Dew Point: 63°F , 17°C
Humidity: 100%
Barometer: 30.04 inHg , 1017.3 hPa
Summary: Fog
Clouds: Overcast
Visibility: 1/4 mile , 0.4 km
Cloud details: Overcast 200 ft
2020/02/18 11:55 KHDC 181155Z AUTO 00000KT 1/4SM FG OVC002 17/17 A3004 RMK AO2
KHUM - Houma,Louisiana, USA
Distance from station: SW 36.54mi, 58.8km
Updated: Tue, 18-Feb-2020 5:47am CST
Mist, Overcast
Mist, Overcast
 Wind from SSE
Wind: SSE 6 mph , 9 km/h
Temperature: 68°F , 20°C
Dew Point: 68°F , 20°C
Humidity: 100%
Barometer: 30.02 inHg , 1016.6 hPa
Summary: Mist
Clouds: Overcast
Visibility: 3/4 mile , 1.2 km
Cloud details: Overcast 200 ft
2020/02/18 11:47 KHUM 181147Z 15005KT 3/4SM BR OVC002 20/20 A3002